Terminal Aerodrome Forecast
Issued by NWS Shreveport, LA

Home | Current Version | Previous Version | Text Only | Print | Product List | Glossary On
Versions: 1 2 3 4 5 6 7 8 9 10 11 12 13 14 15
621
FTUS44 KSHV 222359
TAFGGG
TAF
KGGG 222359Z 2300/2324 30015G25KT P6SM BKN045
     FM230300 33012KT P6SM SKC
     FM231200 32008KT P6SM SKC
     FM232100 28006KT P6SM SKC=

USA.gov is the U.S. government's official web portal to all federal, state and local government web resources and services.